Time;durP1;ratioP1;P1;durP2;ratioP2;P2;SDS_P1;SDS_P2;PMS_P1;PMS_P2;Temp;Humidity;BMP_temperature;BMP_pressure;BME280_temperature;BME280_humidity;BME280_pressure;Samples;Min_cycle;Max_cycle;Signal;HPM_P1;HPM_P2
2023/09/26 00:00:20;;;;;;;8.43;4.15;;;18.50;99.90;;;;;;5078464;28;20049;-79
2023/09/26 00:02:49;;;;;;;8.43;4.40;;;18.60;99.90;;;;;;5072324;28;20051;-79
2023/09/26 00:05:18;;;;;;;10.98;4.90;;;18.60;99.90;;;;;;5094325;28;20060;-78
2023/09/26 00:07:48;;;;;;;7.90;3.88;;;18.60;99.90;;;;;;5069433;28;20139;-78
2023/09/26 00:10:16;;;;;;;12.00;4.30;;;18.60;99.90;;;;;;5091879;28;20047;-78
2023/09/26 00:12:44;;;;;;;10.48;4.10;;;18.60;99.90;;;;;;5093617;28;20405;-78
2023/09/26 00:15:12;;;;;;;8.30;3.85;;;18.50;99.90;;;;;;5079266;28;20050;-78
2023/09/26 00:17:39;;;;;;;9.38;3.50;;;18.60;99.90;;;;;;5077953;28;20109;-78
2023/09/26 00:20:27;;;;;;;7.80;3.83;;;18.50;99.90;;;;;;5089685;28;20140;-78
2023/09/26 00:22:55;;;;;;;8.05;3.80;;;18.50;99.90;;;;;;5093021;28;20128;-78
2023/09/26 00:25:23;;;;;;;11.95;4.28;;;18.50;99.90;;;;;;5097957;28;20083;-78
2023/09/26 00:27:52;;;;;;;8.70;4.40;;;18.50;99.90;;;;;;5062602;28;20055;-78
2023/09/26 00:30:21;;;;;;;8.50;3.80;;;18.50;99.90;;;;;;5079062;28;20036;-78
2023/09/26 00:32:48;;;;;;;8.82;3.88;;;18.40;99.90;;;;;;5078684;28;20036;-78
2023/09/26 00:35:17;;;;;;;15.90;5.32;;;18.40;99.90;;;;;;5077518;28;20128;-79
2023/09/26 00:37:49;;;;;;;5.82;3.47;;;18.40;99.90;;;;;;5070905;28;20051;-79
2023/09/26 00:40:20;;;;;;;8.70;3.95;;;18.40;99.90;;;;;;5075461;28;22773;-78
2023/09/26 00:42:47;;;;;;;9.60;4.03;;;18.40;99.90;;;;;;5078327;28;20527;-79
2023/09/26 00:45:15;;;;;;;7.07;3.83;;;18.30;99.90;;;;;;5074383;28;20048;-78
2023/09/26 00:47:43;;;;;;;12.73;4.60;;;18.30;99.90;;;;;;5065826;28;20047;-78
2023/09/26 00:50:14;;;;;;;8.88;4.95;;;18.30;99.90;;;;;;5075697;28;20044;-78
2023/09/26 00:52:47;;;;;;;9.63;4.00;;;18.30;99.90;;;;;;5089775;28;20039;-78
2023/09/26 00:55:18;;;;;;;8.57;4.13;;;18.30;99.90;;;;;;5094021;28;20045;-78
2023/09/26 00:57:46;;;;;;;11.90;5.00;;;18.30;99.90;;;;;;5061712;28;20048;-79
2023/09/26 01:00:16;;;;;;;9.05;3.72;;;18.30;99.90;;;;;;5091815;27;20056;-79
2023/09/26 01:02:44;;;;;;;10.60;4.75;;;18.20;99.90;;;;;;5072062;28;20056;-79
2023/09/26 01:05:11;;;;;;;10.63;4.30;;;18.30;99.90;;;;;;5076340;28;20040;-79
2023/09/26 01:07:39;;;;;;;12.95;4.88;;;18.20;99.90;;;;;;5067520;28;20044;-79
2023/09/26 01:10:10;;;;;;;7.88;4.18;;;18.20;99.90;;;;;;5078383;28;20055;-79
2023/09/26 01:12:39;;;;;;;10.90;4.05;;;18.20;99.90;;;;;;5089483;28;20040;-79
2023/09/26 01:15:08;;;;;;;11.88;5.00;;;18.20;99.90;;;;;;5075510;28;21183;-79
2023/09/26 01:17:36;;;;;;;8.70;4.25;;;18.20;99.90;;;;;;5071767;28;20060;-79
2023/09/26 01:20:12;;;;;;;12.60;5.13;;;18.20;99.90;;;;;;5071440;28;20051;-79
2023/09/26 01:22:44;;;;;;;12.80;5.47;;;18.20;99.90;;;;;;5084629;28;22433;-80
2023/09/26 01:25:13;;;;;;;9.82;4.78;;;18.20;99.90;;;;;;5075645;28;20039;-79
2023/09/26 01:27:40;;;;;;;9.88;4.53;;;18.10;99.90;;;;;;5065219;28;20058;-79
2023/09/26 01:30:08;;;;;;;10.70;5.10;;;18.10;99.90;;;;;;5075378;28;20048;-78
2023/09/26 01:32:36;;;;;;;12.30;4.57;;;18.10;99.90;;;;;;5078732;28;20485;-78
2023/09/26 01:35:04;;;;;;;7.75;4.05;;;18.10;99.90;;;;;;5077779;28;20032;-78
2023/09/26 01:37:31;;;;;;;7.93;4.28;;;18.10;99.90;;;;;;5065574;28;20067;-77
2023/09/26 01:39:58;;;;;;;10.75;5.00;;;18.10;99.90;;;;;;5071766;28;20138;-77
2023/09/26 01:42:26;;;;;;;8.98;3.70;;;18.10;99.90;;;;;;5067221;28;20138;-77
2023/09/26 01:44:53;;;;;;;9.20;3.88;;;18.10;99.90;;;;;;5062937;28;20056;-77
2023/09/26 01:47:32;;;;;;;8.73;4.45;;;18.00;99.90;;;;;;5066164;28;20185;-77
2023/09/26 01:49:59;;;;;;;8.93;4.75;;;18.00;99.90;;;;;;5076331;28;20052;-78
2023/09/26 01:52:26;;;;;;;10.68;4.25;;;17.90;99.90;;;;;;5072154;28;20085;-78
2023/09/26 01:54:53;;;;;;;12.80;4.63;;;17.90;99.90;;;;;;5076726;28;20139;-79
2023/09/26 01:57:21;;;;;;;10.63;4.95;;;17.90;99.90;;;;;;5070978;28;20501;-79
2023/09/26 01:59:48;;;;;;;11.95;5.00;;;17.90;99.90;;;;;;5079099;28;20056;-78
2023/09/26 02:02:15;;;;;;;7.63;4.78;;;17.90;99.90;;;;;;5083800;28;20051;-78
2023/09/26 02:04:42;;;;;;;11.25;4.97;;;17.90;99.90;;;;;;5059885;28;20048;-78
2023/09/26 02:07:09;;;;;;;8.73;4.00;;;17.90;99.90;;;;;;5081555;28;20937;-78
2023/09/26 02:09:36;;;;;;;8.10;4.10;;;17.90;99.90;;;;;;5076663;28;20044;-78
2023/09/26 02:12:07;;;;;;;10.40;4.45;;;17.90;99.90;;;;;;5061259;28;20137;-78
2023/09/26 02:14:34;;;;;;;9.38;4.05;;;17.90;99.90;;;;;;5071075;28;20059;-77
2023/09/26 02:17:01;;;;;;;9.75;4.10;;;17.90;99.90;;;;;;5072985;28;20117;-78
2023/09/26 02:19:28;;;;;;;9.43;4.68;;;17.90;99.90;;;;;;5081367;28;21298;-78
2023/09/26 02:21:56;;;;;;;8.50;4.78;;;17.90;99.90;;;;;;5071058;28;20124;-78
2023/09/26 02:24:23;;;;;;;11.80;5.68;;;17.80;99.90;;;;;;5064374;28;20678;-78
2023/09/26 02:26:50;;;;;;;12.13;5.50;;;17.80;99.90;;;;;;5063625;28;20032;-78
2023/09/26 02:29:17;;;;;;;10.07;5.03;;;17.80;99.90;;;;;;5080325;28;20036;-78
2023/09/26 02:31:44;;;;;;;8.85;4.65;;;17.70;99.90;;;;;;5092790;28;20086;-78
2023/09/26 02:34:12;;;;;;;9.38;4.57;;;17.70;99.90;;;;;;5073879;28;20040;-78
2023/09/26 02:36:39;;;;;;;11.68;4.90;;;17.70;99.90;;;;;;5095392;28;20048;-78
2023/09/26 02:39:06;;;;;;;8.90;4.72;;;17.70;99.90;;;;;;5075771;28;20132;-78
2023/09/26 02:41:33;;;;;;;12.75;5.22;;;17.70;99.90;;;;;;5099842;28;20040;-78
2023/09/26 02:44:03;;;;;;;11.68;4.35;;;17.80;99.90;;;;;;5081560;28;20087;-78
2023/09/26 02:46:30;;;;;;;12.93;5.13;;;17.70;99.90;;;;;;5074881;28;20053;-78
2023/09/26 02:48:57;;;;;;;9.85;4.93;;;17.80;99.90;;;;;;5074962;28;20113;-78
2023/09/26 02:51:24;;;;;;;10.57;4.65;;;17.70;99.90;;;;;;5084694;28;20051;-78
2023/09/26 02:53:52;;;;;;;10.07;5.03;;;17.70;99.90;;;;;;5101634;27;20617;-78
2023/09/26 02:56:19;;;;;;;9.73;6.05;;;17.70;99.90;;;;;;5077378;28;20421;-78
2023/09/26 02:58:46;;;;;;;11.80;5.30;;;17.70;99.90;;;;;;5079477;28;20047;-78
2023/09/26 03:01:18;;;;;;;13.60;5.55;;;17.70;99.90;;;;;;5077271;28;20918;-78
2023/09/26 03:03:46;;;;;;;11.20;4.95;;;17.70;99.90;;;;;;5079317;28;20048;-78
2023/09/26 03:06:14;;;;;;;10.38;5.13;;;17.70;99.90;;;;;;5079318;28;20040;-77
2023/09/26 03:08:42;;;;;;;11.68;5.00;;;17.70;99.90;;;;;;5083593;28;20044;-78
2023/09/26 03:11:09;;;;;;;9.98;5.28;;;17.70;99.90;;;;;;5076415;28;20068;-77
2023/09/26 03:13:37;;;;;;;14.80;5.22;;;17.60;99.90;;;;;;5075687;28;20135;-77
2023/09/26 03:16:08;;;;;;;11.73;5.20;;;17.60;99.90;;;;;;5096505;27;20071;-77
2023/09/26 03:18:36;;;;;;;8.98;5.35;;;17.60;99.90;;;;;;5075862;28;22531;-77
2023/09/26 03:21:06;;;;;;;11.57;5.65;;;17.60;99.90;;;;;;5096502;28;20054;-77
2023/09/26 03:23:33;;;;;;;11.50;5.82;;;17.50;99.90;;;;;;5075795;28;20048;-78
2023/09/26 03:26:01;;;;;;;9.85;5.28;;;17.50;99.90;;;;;;5077689;28;20098;-77
2023/09/26 03:28:28;;;;;;;8.30;4.68;;;17.50;99.90;;;;;;5076942;28;20134;-78
2023/09/26 03:30:55;;;;;;;10.40;5.15;;;17.50;99.90;;;;;;5073812;28;20914;-78
2023/09/26 03:33:23;;;;;;;9.00;5.50;;;17.50;99.90;;;;;;5079174;28;20063;-78
2023/09/26 03:35:50;;;;;;;11.30;5.45;;;17.50;99.90;;;;;;5077005;28;20071;-78
2023/09/26 03:38:17;;;;;;;12.93;6.00;;;17.50;99.90;;;;;;5083523;28;20060;-78
2023/09/26 03:40:44;;;;;;;10.35;5.50;;;17.50;99.90;;;;;;5075660;28;20130;-78
2023/09/26 03:43:11;;;;;;;11.27;5.85;;;17.50;99.90;;;;;;5066618;28;20056;-78
2023/09/26 03:45:39;;;;;;;11.63;5.68;;;17.50;99.90;;;;;;5075909;28;20563;-78
2023/09/26 03:48:07;;;;;;;10.68;6.60;;;17.50;99.90;;;;;;5063127;28;20072;-78
2023/09/26 03:50:34;;;;;;;10.80;6.15;;;17.50;99.90;;;;;;5077328;28;20112;-79
2023/09/26 03:53:01;;;;;;;14.43;6.50;;;17.60;99.90;;;;;;5086591;28;20090;-78
2023/09/26 03:55:28;;;;;;;14.13;6.30;;;17.60;99.90;;;;;;5077867;28;20050;-78
2023/09/26 03:57:55;;;;;;;12.85;7.28;;;17.50;99.90;;;;;;5078270;28;20941;-78
2023/09/26 04:00:26;;;;;;;15.43;6.78;;;17.60;99.90;;;;;;5083284;28;22515;-78
2023/09/26 04:02:56;;;;;;;11.70;6.68;;;17.60;99.90;;;;;;5084708;28;22118;-78
2023/09/26 04:05:23;;;;;;;11.55;6.22;;;17.60;99.90;;;;;;5083613;28;20047;-78
2023/09/26 04:07:50;;;;;;;13.15;6.32;;;17.60;99.90;;;;;;5081360;28;20083;-78
2023/09/26 04:10:17;;;;;;;9.82;6.18;;;17.60;99.90;;;;;;5075639;28;20209;-78
2023/09/26 04:12:45;;;;;;;13.77;7.35;;;17.60;99.90;;;;;;5060762;28;20059;-78
2023/09/26 04:15:13;;;;;;;12.82;7.25;;;17.60;99.90;;;;;;5080147;28;22513;-78
2023/09/26 04:17:40;;;;;;;12.18;5.63;;;17.60;99.90;;;;;;5079767;28;20052;-78
2023/09/26 04:20:19;;;;;;;12.07;6.75;;;17.60;99.90;;;;;;5088543;28;20147;-78
2023/09/26 04:23:03;;;;;;;13.35;6.45;;;17.50;99.90;;;;;;5075723;28;20061;-78
2023/09/26 04:25:34;;;;;;;13.25;7.50;;;17.50;99.90;;;;;;5084739;28;20070;-78
2023/09/26 04:28:02;;;;;;;14.10;6.25;;;17.40;99.90;;;;;;5086800;28;20044;-78
2023/09/26 04:30:34;;;;;;;13.73;7.47;;;17.50;99.90;;;;;;5092175;28;20048;-78
2023/09/26 04:33:02;;;;;;;15.32;8.20;;;17.40;99.90;;;;;;5092266;28;20061;-78
2023/09/26 04:35:29;;;;;;;13.70;7.03;;;17.40;99.90;;;;;;5081429;28;20047;-78
2023/09/26 04:37:56;;;;;;;16.05;8.25;;;17.30;99.90;;;;;;5066922;28;20059;-78
2023/09/26 04:40:23;;;;;;;12.55;7.10;;;17.30;99.90;;;;;;5077961;28;20094;-78
2023/09/26 04:42:52;;;;;;;13.68;7.55;;;17.30;99.90;;;;;;5062009;28;20049;-78
2023/09/26 04:45:19;;;;;;;15.13;8.48;;;17.30;99.90;;;;;;5094918;28;20508;-78
2023/09/26 04:47:46;;;;;;;20.05;8.52;;;17.30;99.90;;;;;;5068192;28;20056;-78
2023/09/26 04:50:13;;;;;;;15.88;7.78;;;17.30;99.90;;;;;;5076279;28;20055;-78
2023/09/26 04:52:40;;;;;;;12.70;7.95;;;17.30;99.90;;;;;;5077438;28;22175;-78
2023/09/26 04:55:08;;;;;;;16.13;7.60;;;17.40;99.90;;;;;;5075307;28;21148;-79
2023/09/26 04:57:35;;;;;;;13.73;7.78;;;17.40;99.90;;;;;;5073681;28;20503;-79
2023/09/26 05:00:05;;;;;;;13.80;7.75;;;17.40;99.90;;;;;;5078281;28;20455;-79
2023/09/26 05:02:32;;;;;;;13.65;7.50;;;17.40;99.90;;;;;;5088346;28;20058;-79
2023/09/26 05:04:59;;;;;;;13.02;6.75;;;17.50;99.90;;;;;;5073222;28;20044;-78
2023/09/26 05:07:27;;;;;;;14.18;7.32;;;17.50;99.90;;;;;;5067054;28;20055;-80
2023/09/26 05:09:54;;;;;;;11.80;6.97;;;17.50;99.90;;;;;;5072860;28;20063;-81
2023/09/26 05:12:21;;;;;;;18.33;7.80;;;17.60;99.90;;;;;;5072590;28;20044;-83
2023/09/26 05:14:48;;;;;;;13.45;6.93;;;17.50;99.90;;;;;;5073471;28;20134;-82
2023/09/26 05:17:15;;;;;;;12.68;7.28;;;17.60;99.90;;;;;;5077196;28;21800;-82
2023/09/26 05:19:42;;;;;;;12.90;6.45;;;17.70;99.90;;;;;;5079828;28;22534;-81
2023/09/26 05:22:10;;;;;;;14.20;7.28;;;17.70;99.90;;;;;;5085557;28;20043;-82
2023/09/26 05:24:37;;;;;;;9.65;6.63;;;17.70;99.90;;;;;;5077944;28;20055;-81
2023/09/26 05:27:06;;;;;;;15.60;6.63;;;17.70;99.90;;;;;;5075786;28;20055;-82
2023/09/26 05:29:35;;;;;;;11.45;7.43;;;17.80;99.90;;;;;;5066430;28;20509;-82
2023/09/26 05:32:02;;;;;;;9.90;6.75;;;17.80;99.90;;;;;;5063446;28;20062;-83
2023/09/26 05:34:30;;;;;;;10.77;6.68;;;17.80;99.90;;;;;;5073466;28;20041;-83
2023/09/26 05:36:57;;;;;;;15.13;7.18;;;17.80;99.90;;;;;;5076180;28;20040;-82
2023/09/26 05:39:24;;;;;;;10.75;6.70;;;17.90;99.90;;;;;;5078332;28;20032;-84
2023/09/26 05:41:51;;;;;;;12.35;6.22;;;17.90;99.90;;;;;;5090372;28;20098;-82
2023/09/26 05:44:19;;;;;;;12.30;6.45;;;18.00;99.90;;;;;;5063184;28;20051;-83
2023/09/26 05:46:46;;;;;;;12.68;6.65;;;18.00;99.90;;;;;;5061632;28;20158;-82
2023/09/26 05:49:13;;;;;;;12.15;6.75;;;18.00;99.90;;;;;;5078009;28;22130;-80
2023/09/26 05:51:40;;;;;;;14.20;6.95;;;18.00;99.90;;;;;;5063071;28;20040;-83
2023/09/26 05:54:07;;;;;;;12.77;6.57;;;18.10;99.90;;;;;;5063511;28;20155;-81
2023/09/26 05:56:55;;;;;;;10.45;6.28;;;18.20;99.90;;;;;;5070546;28;20048;-83
2023/09/26 05:59:22;;;;;;;11.05;6.68;;;18.20;99.90;;;;;;5088125;28;20084;-84
2023/09/26 06:01:49;;;;;;;11.07;6.57;;;18.30;99.90;;;;;;5055627;28;20139;-83
2023/09/26 06:04:16;;;;;;;11.75;6.75;;;18.30;99.90;;;;;;5063229;28;20052;-82
2023/09/26 06:06:44;;;;;;;12.43;6.13;;;18.40;99.90;;;;;;5063668;28;20055;-81
2023/09/26 06:09:11;;;;;;;13.18;6.95;;;18.40;99.90;;;;;;5069211;28;20131;-81
2023/09/26 06:11:38;;;;;;;13.93;6.70;;;18.50;99.90;;;;;;5089282;27;20048;-81
2023/09/26 06:14:05;;;;;;;13.35;5.88;;;18.60;99.90;;;;;;5056382;28;20036;-80
2023/09/26 06:16:32;;;;;;;10.95;6.53;;;18.60;99.90;;;;;;5070148;28;20130;-81
2023/09/26 06:19:00;;;;;;;12.15;6.93;;;18.70;99.90;;;;;;5060541;28;20059;-82
2023/09/26 06:21:27;;;;;;;11.60;6.80;;;18.80;99.90;;;;;;5070007;28;20059;-82
2023/09/26 06:23:55;;;;;;;12.85;7.15;;;18.80;99.90;;;;;;5071846;28;20055;-82
2023/09/26 06:26:22;;;;;;;13.40;6.97;;;18.90;99.90;;;;;;5079857;28;20044;-82
2023/09/26 06:28:50;;;;;;;12.20;6.88;;;18.90;99.90;;;;;;5068426;28;20058;-81
2023/09/26 06:31:17;;;;;;;11.75;6.57;;;19.00;99.90;;;;;;5074026;28;20144;-81
2023/09/26 06:33:44;;;;;;;11.25;6.47;;;19.10;99.90;;;;;;5058517;28;20052;-82
2023/09/26 06:36:21;;;;;;;11.73;6.18;;;19.10;99.90;;;;;;5073757;28;22423;-81
2023/09/26 06:38:48;;;;;;;11.05;6.80;;;19.20;99.90;;;;;;5076707;28;20143;-81
2023/09/26 06:41:15;;;;;;;13.20;7.50;;;19.20;99.90;;;;;;5086006;28;20048;-80
2023/09/26 06:43:42;;;;;;;14.18;6.85;;;19.30;99.90;;;;;;5082258;28;20071;-80
2023/09/26 06:46:09;;;;;;;10.00;6.47;;;19.30;99.90;;;;;;5076433;28;20045;-80
2023/09/26 06:48:38;;;;;;;12.13;6.40;;;19.40;99.90;;;;;;5092206;28;20045;-79
2023/09/26 06:51:05;;;;;;;11.05;5.88;;;19.50;99.90;;;;;;5074857;28;20063;-82
2023/09/26 06:53:33;;;;;;;11.68;6.20;;;19.50;99.90;;;;;;5070221;28;22489;-81
2023/09/26 06:56:06;;;;;;;10.98;6.28;;;19.60;99.90;;;;;;5088912;28;23062;-79
2023/09/26 06:58:35;;;;;;;11.73;6.50;;;19.70;99.90;;;;;;5063415;28;20048;-81
2023/09/26 07:01:03;;;;;;;14.57;7.20;;;19.80;99.90;;;;;;5077799;28;20510;-80
2023/09/26 07:03:32;;;;;;;13.57;6.60;;;19.90;99.90;;;;;;5088851;28;20056;-81
2023/09/26 07:06:11;;;;;;;15.55;6.68;;;19.90;99.90;;;;;;5078491;28;20048;-81
2023/09/26 07:08:41;;;;;;;11.27;5.80;;;20.00;99.90;;;;;;5063154;28;22404;-78
2023/09/26 07:11:09;;;;;;;13.07;6.80;;;20.00;99.90;;;;;;5071988;28;22434;-82
2023/09/26 07:13:36;;;;;;;10.52;6.55;;;20.20;99.90;;;;;;5071334;28;20032;-81
2023/09/26 07:16:16;;;;;;;10.85;6.20;;;20.20;99.90;;;;;;5084280;28;20058;-81
2023/09/26 07:18:43;;;;;;;11.13;6.18;;;20.20;99.90;;;;;;5070660;28;20067;-83
2023/09/26 07:21:10;;;;;;;9.35;5.88;;;20.30;99.90;;;;;;5080056;28;20142;-80
2023/09/26 07:23:38;;;;;;;8.48;5.32;;;20.40;99.90;;;;;;5083928;28;20040;-80
2023/09/26 07:26:09;;;;;;;11.05;6.03;;;20.40;99.90;;;;;;5077039;28;22434;-81
2023/09/26 07:28:41;;;;;;;8.65;5.65;;;20.50;99.90;;;;;;5080175;28;20055;-82
2023/09/26 07:31:10;;;;;;;10.55;5.82;;;20.50;99.90;;;;;;5074054;28;20044;-82
2023/09/26 07:33:38;;;;;;;13.60;7.05;;;20.60;99.90;;;;;;5086089;28;20135;-82
2023/09/26 07:36:06;;;;;;;13.10;6.10;;;20.70;99.90;;;;;;5065967;28;20060;-83
2023/09/26 07:38:34;;;;;;;9.15;5.60;;;20.70;99.90;;;;;;5083086;28;20048;-82
2023/09/26 07:41:04;;;;;;;10.57;5.95;;;20.70;99.90;;;;;;5054882;28;20152;-79
2023/09/26 07:43:34;;;;;;;10.93;5.97;;;20.80;99.90;;;;;;5072493;28;20048;-85
2023/09/26 07:46:25;;;;;;;10.40;5.88;;;20.90;99.90;;;;;;5072341;28;20052;-79
2023/09/26 07:48:53;;;;;;;9.60;5.68;;;20.90;99.90;;;;;;5071151;28;20048;-81
2023/09/26 07:51:20;;;;;;;9.68;5.97;;;21.00;99.90;;;;;;5042258;28;20056;-78
2023/09/26 07:53:47;;;;;;;14.82;6.80;;;21.10;99.90;;;;;;5045729;28;22456;-80
2023/09/26 07:56:14;;;;;;;9.70;5.93;;;21.10;99.90;;;;;;5039440;28;20096;-82
2023/09/26 07:58:42;;;;;;;11.88;6.28;;;21.20;99.90;;;;;;5041995;28;22638;-80
2023/09/26 08:01:09;;;;;;;9.60;6.03;;;21.30;99.90;;;;;;5039048;28;20524;-83
2023/09/26 08:03:40;;;;;;;10.88;6.22;;;21.40;99.90;;;;;;5047717;28;20110;-80
2023/09/26 08:06:08;;;;;;;9.35;5.35;;;21.30;99.90;;;;;;5046905;28;20048;-82
2023/09/26 08:08:36;;;;;;;9.52;5.65;;;21.30;99.90;;;;;;5039523;28;20126;-82
2023/09/26 08:11:06;;;;;;;9.60;5.57;;;21.50;99.90;;;;;;5038638;28;20124;-82
2023/09/26 08:13:34;;;;;;;12.15;6.00;;;21.50;99.90;;;;;;5053176;28;20047;-80
2023/09/26 08:16:01;;;;;;;11.70;6.00;;;21.60;99.90;;;;;;5037727;28;20052;-82
2023/09/26 08:18:29;;;;;;;13.15;6.68;;;21.50;99.90;;;;;;5040505;28;20099;-83
2023/09/26 08:20:57;;;;;;;11.40;5.93;;;21.60;99.90;;;;;;5057991;28;20040;-83
2023/09/26 08:23:25;;;;;;;9.60;5.88;;;21.70;99.90;;;;;;5078796;28;20052;-83
2023/09/26 08:26:01;;;;;;;12.45;5.95;;;21.80;99.90;;;;;;5087383;28;22480;-81
2023/09/26 08:28:30;;;;;;;10.75;6.38;;;21.80;99.90;;;;;;5088932;28;20146;-83
2023/09/26 08:31:04;;;;;;;12.23;6.32;;;21.80;99.90;;;;;;5078358;28;20033;-81
2023/09/26 08:33:31;;;;;;;11.43;5.78;;;21.90;99.90;;;;;;5087588;28;21933;-81
2023/09/26 08:35:58;;;;;;;8.20;5.60;;;22.00;99.90;;;;;;5068031;28;20040;-80
2023/09/26 08:38:26;;;;;;;9.00;5.15;;;22.00;99.90;;;;;;5069961;28;20101;-83
2023/09/26 08:40:57;;;;;;;9.43;5.65;;;22.10;99.90;;;;;;5076720;28;20072;-82
2023/09/26 08:43:26;;;;;;;10.05;5.43;;;22.20;99.90;;;;;;5084741;28;20135;-81
2023/09/26 08:45:54;;;;;;;11.02;5.75;;;22.30;99.90;;;;;;5080133;28;20044;-81
2023/09/26 08:48:21;;;;;;;13.35;5.00;;;22.30;99.90;;;;;;5057950;28;20044;-79
2023/09/26 08:50:50;;;;;;;9.07;4.72;;;22.40;99.90;;;;;;5070795;28;20049;-79
2023/09/26 08:53:18;;;;;;;9.82;5.35;;;22.60;99.90;;;;;;5065266;28;20707;-83
2023/09/26 08:55:49;;;;;;;6.38;5.00;;;22.60;99.90;;;;;;5071182;28;20132;-82
2023/09/26 08:58:19;;;;;;;7.07;4.85;;;22.60;99.50;;;;;;5074358;28;20048;-84
2023/09/26 09:00:46;;;;;;;6.50;4.70;;;22.70;99.50;;;;;;5074730;28;20060;-82
2023/09/26 09:03:14;;;;;;;9.55;5.60;;;22.80;98.00;;;;;;5079215;28;22415;-80
2023/09/26 09:05:41;;;;;;;8.20;4.70;;;23.00;99.40;;;;;;5087413;28;20044;-84
2023/09/26 09:08:15;;;;;;;6.47;4.55;;;23.00;97.50;;;;;;5094140;28;20064;-79
2023/09/26 09:10:55;;;;;;;10.40;5.13;;;23.10;98.80;;;;;;5082756;28;20043;-79
2023/09/26 09:13:40;;;;;;;9.75;4.90;;;23.10;98.00;;;;;;5068631;28;20426;-80
2023/09/26 09:16:18;;;;;;;6.93;4.47;;;23.10;97.50;;;;;;5062427;28;20045;-81
2023/09/26 09:18:51;;;;;;;10.05;4.57;;;23.20;95.10;;;;;;5080369;28;20138;-82
2023/09/26 09:21:29;;;;;;;7.60;4.15;;;23.30;94.90;;;;;;5054404;28;20109;-79
2023/09/26 09:24:06;;;;;;;6.57;3.90;;;23.30;94.20;;;;;;5061930;28;20052;-82
2023/09/26 09:26:35;;;;;;;8.98;4.72;;;23.40;94.40;;;;;;5074700;28;22510;-81
2023/09/26 09:29:35;;;;;;;6.97;4.10;;;23.40;93.70;;;;;;5080301;28;20139;-80
2023/09/26 09:32:05;;;;;;;7.25;4.38;;;23.40;94.40;;;;;;5048124;28;20151;-82
2023/09/26 09:34:33;;;;;;;7.82;4.90;;;23.50;93.60;;;;;;5063967;28;20028;-83
2023/09/26 09:37:00;;;;;;;10.30;5.00;;;23.50;92.80;;;;;;5072988;28;20410;-82
2023/09/26 09:39:27;;;;;;;8.95;4.82;;;23.50;93.00;;;;;;5068745;28;20048;-81
2023/09/26 09:42:03;;;;;;;6.63;3.60;;;23.60;91.90;;;;;;5070610;28;20498;-80
2023/09/26 09:44:31;;;;;;;8.15;4.45;;;23.70;92.90;;;;;;5069887;28;20056;-81
2023/09/26 09:47:03;;;;;;;8.80;4.05;;;23.60;90.90;;;;;;5077988;28;20060;-83
2023/09/26 09:49:41;;;;;;;8.73;4.28;;;23.60;90.50;;;;;;5087897;28;20834;-79
2023/09/26 09:52:10;;;;;;;13.43;4.18;;;23.80;91.50;;;;;;5091167;28;20130;-80
2023/09/26 09:54:39;;;;;;;6.85;4.47;;;23.80;91.20;;;;;;5070618;28;20048;-83
2023/09/26 09:57:10;;;;;;;9.07;3.95;;;23.90;91.60;;;;;;5066509;28;20052;-84
2023/09/26 09:59:38;;;;;;;9.88;4.25;;;23.80;90.80;;;;;;5078443;28;20060;-81
2023/09/26 10:02:06;;;;;;;7.70;4.05;;;23.80;91.10;;;;;;5067591;28;20074;-82
2023/09/26 10:04:35;;;;;;;10.82;5.05;;;23.90;91.60;;;;;;5071672;28;20060;-83
2023/09/26 10:07:03;;;;;;;6.60;3.90;;;23.90;91.10;;;;;;5081676;28;20382;-81
2023/09/26 10:09:32;;;;;;;9.18;3.97;;;24.00;90.30;;;;;;5096124;27;20040;-81
2023/09/26 10:12:01;;;;;;;5.82;3.65;;;24.00;89.20;;;;;;5070604;28;22445;-81
2023/09/26 10:14:32;;;;;;;7.35;3.75;;;24.10;90.20;;;;;;5086657;28;22470;-82
2023/09/26 10:16:59;;;;;;;6.80;4.45;;;24.00;89.10;;;;;;5068769;28;20147;-83
2023/09/26 10:19:28;;;;;;;7.22;4.35;;;24.00;89.60;;;;;;5066484;28;20056;-82
2023/09/26 10:22:20;;;;;;;6.25;4.40;;;24.00;89.30;;;;;;5074409;28;20075;-81
2023/09/26 10:24:52;;;;;;;9.07;4.25;;;24.00;90.60;;;;;;5086753;28;20053;-83
2023/09/26 10:27:31;;;;;;;6.60;3.85;;;24.00;89.10;;;;;;5080061;28;20048;-78
2023/09/26 10:30:19;;;;;;;8.63;3.92;;;24.10;90.60;;;;;;5063659;28;20051;-81
2023/09/26 10:32:46;;;;;;;7.47;3.95;;;24.20;87.20;;;;;;5077519;28;20056;-81
2023/09/26 10:35:13;;;;;;;4.60;3.58;;;24.20;88.00;;;;;;5057274;28;20044;-81
2023/09/26 10:38:00;;;;;;;6.70;3.58;;;24.30;87.90;;;;;;5054290;28;20060;-81
2023/09/26 10:40:28;;;;;;;8.90;3.63;;;24.40;85.30;;;;;;5063210;28;22562;-81
2023/09/26 10:42:55;;;;;;;7.60;4.20;;;24.50;86.20;;;;;;5069613;28;20056;-82
2023/09/26 10:45:44;;;;;;;5.82;3.78;;;24.50;84.30;;;;;;5078559;28;20121;-81
2023/09/26 10:48:18;;;;;;;9.45;3.78;;;24.40;87.30;;;;;;5089030;28;20062;-81
2023/09/26 10:50:46;;;;;;;5.78;4.03;;;24.50;83.60;;;;;;5062176;28;20537;-80
2023/09/26 10:53:13;;;;;;;5.53;3.28;;;24.60;82.50;;;;;;5056509;28;20138;-82
2023/09/26 10:55:42;;;;;;;6.07;3.58;;;24.70;84.80;;;;;;5068969;28;22446;-80
2023/09/26 10:58:09;;;;;;;10.63;3.92;;;24.60;82.60;;;;;;5074291;28;20411;-81
2023/09/26 11:00:36;;;;;;;6.40;4.20;;;24.60;82.80;;;;;;5078872;28;20084;-82
2023/09/26 11:03:05;;;;;;;5.78;3.78;;;24.70;83.80;;;;;;5078865;28;20056;-80
2023/09/26 11:05:33;;;;;;;7.93;3.47;;;24.80;83.90;;;;;;5078282;28;20127;-82
2023/09/26 11:08:01;;;;;;;6.22;3.22;;;24.80;82.00;;;;;;5088340;28;20048;-80
2023/09/26 11:10:28;;;;;;;8.27;3.70;;;24.90;83.20;;;;;;5072120;28;20055;-81
2023/09/26 11:12:57;;;;;;;5.35;3.15;;;24.90;83.30;;;;;;5081434;28;20107;-82
2023/09/26 11:15:25;;;;;;;6.13;3.38;;;24.90;80.90;;;;;;5066115;28;20048;-80
2023/09/26 11:17:53;;;;;;;7.80;3.63;;;24.90;79.30;;;;;;5065309;28;20601;-82
2023/09/26 11:20:20;;;;;;;8.43;4.07;;;25.00;81.30;;;;;;5075213;28;20052;-82
2023/09/26 11:22:51;;;;;;;8.90;3.63;;;25.10;79.80;;;;;;5087455;28;20058;-83
2023/09/26 11:25:18;;;;;;;9.75;4.15;;;25.10;79.40;;;;;;5089312;28;20041;-81
2023/09/26 11:27:47;;;;;;;8.18;3.60;;;25.10;78.90;;;;;;5072217;28;20090;-80
2023/09/26 11:30:17;;;;;;;4.20;3.42;;;25.10;79.90;;;;;;5089179;28;22398;-81
2023/09/26 11:32:54;;;;;;;9.75;3.40;;;25.20;77.50;;;;;;5088205;28;22452;-82
2023/09/26 11:35:22;;;;;;;6.43;3.17;;;25.30;77.80;;;;;;5076226;28;20060;-83
2023/09/26 11:37:54;;;;;;;6.05;3.33;;;25.20;77.40;;;;;;5074748;28;20057;-81
2023/09/26 11:40:26;;;;;;;5.78;3.38;;;25.20;76.80;;;;;;5078049;28;20060;-82
2023/09/26 11:42:57;;;;;;;6.32;3.60;;;25.30;77.00;;;;;;5091081;28;20048;-83
2023/09/26 11:45:26;;;;;;;5.35;3.40;;;25.30;77.80;;;;;;5062509;28;20142;-83
2023/09/26 11:47:58;;;;;;;8.82;3.45;;;25.40;76.20;;;;;;5070680;28;20044;-81
2023/09/26 11:50:27;;;;;;;9.07;3.65;;;25.40;77.90;;;;;;5065526;28;20102;-80
2023/09/26 11:53:01;;;;;;;9.38;3.58;;;25.30;76.80;;;;;;5073044;28;20780;-82
2023/09/26 11:55:30;;;;;;;12.05;3.42;;;25.30;76.10;;;;;;5077531;28;20049;-79
2023/09/26 11:57:59;;;;;;;6.45;3.63;;;25.30;75.80;;;;;;5072025;28;20064;-81
2023/09/26 12:00:26;;;;;;;8.13;3.70;;;25.30;77.10;;;;;;5047872;28;22493;-81
2023/09/26 12:02:56;;;;;;;6.13;3.33;;;25.30;77.20;;;;;;5057622;28;20049;-81
2023/09/26 12:05:23;;;;;;;3.92;3.00;;;25.30;77.80;;;;;;5052076;28;20049;-79
2023/09/26 12:07:51;;;;;;;6.32;3.47;;;25.30;75.00;;;;;;5035913;28;20041;-82
2023/09/26 12:10:19;;;;;;;8.73;4.65;;;25.30;75.30;;;;;;5053131;28;20852;-82
2023/09/26 12:12:47;;;;;;;8.60;3.60;;;25.30;76.90;;;;;;5055476;28;20119;-82
2023/09/26 12:15:25;;;;;;;9.50;3.50;;;25.40;76.40;;;;;;5020829;28;20057;-82
2023/09/26 12:17:54;;;;;;;7.53;3.42;;;25.40;75.70;;;;;;5068765;28;20053;-79
2023/09/26 12:20:24;;;;;;;6.53;2.90;;;25.40;74.20;;;;;;5053988;28;20053;-81
2023/09/26 12:22:57;;;;;;;4.93;3.00;;;25.40;73.50;;;;;;5042944;28;20060;-82
2023/09/26 12:25:30;;;;;;;6.22;2.83;;;25.40;71.50;;;;;;5053466;28;20041;-82
2023/09/26 12:27:57;;;;;;;5.90;2.88;;;25.40;71.40;;;;;;5013106;28;20048;-83
2023/09/26 12:30:25;;;;;;;8.20;3.20;;;25.30;71.80;;;;;;5040161;28;20116;-82
2023/09/26 12:32:52;;;;;;;8.23;3.10;;;25.40;71.20;;;;;;5052316;28;20723;-80
2023/09/26 12:35:19;;;;;;;6.90;3.05;;;25.40;72.50;;;;;;5027437;28;20051;-82
2023/09/26 12:37:47;;;;;;;6.15;3.00;;;25.40;71.90;;;;;;5050719;28;20076;-82
2023/09/26 12:40:15;;;;;;;6.50;2.97;;;25.30;71.60;;;;;;5024919;28;20056;-83
2023/09/26 12:42:42;;;;;;;6.72;3.00;;;25.30;71.30;;;;;;5068968;28;20069;-80
2023/09/26 12:45:10;;;;;;;9.00;3.05;;;25.40;70.90;;;;;;5036268;28;20052;-80
2023/09/26 12:47:38;;;;;;;6.50;2.83;;;25.40;71.60;;;;;;5055123;28;20049;-82
2023/09/26 12:50:08;;;;;;;4.82;2.90;;;25.40;72.00;;;;;;5066892;28;20052;-82